createdAt,value
2022-09-18T13:50:01.755Z,14.60
2022-09-18T13:52:34.822Z,14.20
2022-09-18T13:55:24.890Z,13.90
2022-09-18T13:57:52.573Z,13.80
2022-09-18T14:00:19.070Z,13.70
2022-09-18T14:03:04.879Z,13.50
2022-09-18T14:05:33.992Z,13.40
2022-09-18T14:08:12.442Z,13.40
2022-09-18T14:11:14.194Z,13.20
2022-09-18T14:13:51.394Z,13.20
2022-09-18T14:16:21.496Z,13.20
2022-09-18T14:18:48.086Z,13.10
2022-09-18T14:21:17.698Z,13.20
2022-09-18T14:23:47.274Z,13.10
2022-09-18T14:26:29.158Z,13.10
2022-09-18T14:29:00.378Z,13.00
2022-09-18T14:31:41.028Z,13.00
2022-09-18T14:34:17.294Z,13.00
2022-09-18T14:36:48.608Z,12.90
2022-09-18T14:39:30.242Z,12.90
2022-09-18T14:42:24.733Z,12.80
2022-09-18T14:44:58.875Z,12.80
2022-09-18T14:47:27.419Z,12.80
2022-09-18T14:49:54.021Z,12.80
2022-09-18T14:52:30.244Z,12.70
2022-09-18T14:54:59.267Z,12.80
2022-09-18T14:57:50.086Z,12.80
2022-09-18T15:00:23.729Z,12.80
2022-09-18T15:02:56.365Z,12.80
2022-09-18T15:05:23.301Z,14.90
2022-09-18T15:07:56.701Z,15.90
2022-09-18T15:10:25.085Z,15.60
2022-09-18T15:12:52.026Z,15.60
2022-09-18T15:15:27.887Z,15.20
2022-09-18T15:17:55.000Z,14.50
2022-09-18T15:20:22.922Z,14.40
2022-09-18T15:22:51.286Z,14.40
2022-09-18T15:25:29.264Z,14.20
2022-09-18T15:27:57.983Z,14.40
2022-09-18T15:30:25.559Z,14.40
2022-09-18T15:32:59.600Z,14.50
2022-09-18T15:35:36.105Z,14.30
2022-09-18T15:38:16.097Z,14.10
2022-09-18T15:40:43.741Z,13.90
2022-09-18T15:43:33.745Z,13.80
2022-09-18T15:46:04.750Z,13.80
2022-09-18T15:48:44.125Z,13.70
2022-09-18T15:51:16.243Z,13.60
2022-09-18T15:54:01.022Z,13.30
2022-09-18T15:56:28.518Z,13.20
2022-09-18T15:59:00.763Z,13.10
2022-09-18T16:01:35.299Z,13.00
2022-09-18T16:04:08.831Z,12.90
2022-09-18T16:06:41.583Z,13.10
2022-09-18T16:09:08.172Z,13.00
2022-09-18T16:11:46.385Z,12.90
2022-09-18T16:14:45.691Z,12.80
2022-09-18T16:17:44.281Z,12.70
2022-09-18T16:20:31.869Z,12.60
2022-09-18T16:23:25.257Z,12.60
2022-09-18T16:26:03.633Z,12.50
2022-09-18T16:28:32.972Z,12.50
2022-09-18T16:30:59.720Z,12.50
2022-09-18T16:33:32.011Z,12.50
2022-09-18T16:36:15.178Z,12.50
2022-09-18T16:38:41.725Z,12.40
2022-09-18T16:41:09.557Z,12.40
2022-09-18T16:43:36.666Z,12.40
2022-09-18T16:46:03.297Z,12.40
2022-09-18T16:48:29.902Z,12.40
2022-09-18T16:50:56.496Z,12.20
2022-09-18T16:53:23.062Z,12.00
2022-09-18T16:55:53.377Z,11.50
2022-09-18T16:58:20.940Z,11.30
2022-09-18T17:00:47.706Z,11.10
2022-09-18T17:03:14.738Z,10.90
2022-09-18T17:05:41.471Z,10.80
2022-09-18T17:08:08.285Z,10.60
2022-09-18T17:10:35.174Z,10.70
2022-09-18T17:13:02.231Z,10.60
2022-09-18T17:15:29.248Z,10.60
2022-09-18T17:17:55.953Z,10.60
2022-09-18T17:20:23.044Z,10.60
2022-09-18T17:22:50.926Z,10.60
2022-09-18T17:25:17.722Z,10.60
2022-09-18T17:27:44.358Z,10.60
2022-09-18T17:30:11.626Z,10.50
2022-09-18T17:32:38.395Z,10.40
2022-09-18T17:35:05.389Z,10.40
2022-09-18T17:37:31.993Z,10.40
2022-09-18T17:40:00.114Z,10.50
2022-09-18T17:42:26.948Z,10.70
2022-09-18T17:44:53.480Z,10.60
2022-09-18T17:47:23.058Z,10.60
2022-09-18T17:49:49.722Z,10.60
2022-09-18T17:52:16.973Z,10.60
2022-09-18T17:54:43.690Z,10.70
2022-09-18T17:57:13.267Z,10.60
2022-09-18T17:59:41.650Z,10.60
2022-09-18T18:02:10.555Z,10.60
2022-09-18T18:04:37.511Z,10.50
2022-09-18T18:07:05.582Z,10.40
2022-09-18T18:09:34.301Z,10.30
2022-09-18T18:12:01.120Z,10.30
2022-09-18T18:14:29.073Z,10.30
2022-09-18T18:16:55.624Z,10.20
2022-09-18T18:19:22.231Z,10.10
2022-09-18T18:21:48.828Z,10.10
2022-09-18T18:24:18.242Z,10.10
2022-09-18T18:26:46.703Z,10.10
2022-09-18T18:29:16.660Z,10.00
2022-09-18T18:31:43.378Z,10.10
2022-09-18T18:34:11.194Z,10.10
2022-09-18T18:36:39.547Z,10.20
2022-09-18T18:39:09.848Z,10.20
2022-09-18T18:41:37.165Z,10.30
2022-09-18T18:44:07.445Z,10.30
2022-09-18T18:46:36.314Z,10.40
2022-09-18T18:49:08.987Z,10.40
2022-09-18T18:51:38.423Z,10.40
2022-09-18T18:54:06.293Z,10.50
2022-09-18T18:56:35.554Z,10.50
2022-09-18T18:59:04.652Z,10.60
2022-09-18T19:01:32.204Z,10.60
2022-09-18T19:04:04.283Z,10.60
2022-09-18T19:06:31.316Z,10.60
2022-09-18T19:09:00.696Z,10.60
2022-09-18T19:11:30.264Z,10.60
2022-09-18T19:13:57.488Z,10.50
2022-09-18T19:16:25.867Z,10.50
2022-09-18T19:18:54.245Z,10.50
2022-09-18T19:21:22.197Z,10.50
2022-09-18T19:23:53.941Z,10.50
2022-09-18T19:26:21.803Z,10.40
2022-09-18T19:28:53.490Z,10.40
2022-09-18T19:31:21.410Z,10.50
2022-09-18T19:33:50.958Z,10.50
2022-09-18T19:36:21.717Z,10.50
2022-09-18T19:38:52.623Z,10.50
2022-09-18T19:41:41.194Z,10.50
2022-09-18T19:44:17.719Z,10.50
2022-09-18T19:46:46.188Z,10.50
2022-09-18T19:49:19.380Z,10.50
2022-09-18T19:51:47.005Z,10.50
2022-09-18T19:54:13.833Z,10.50
2022-09-18T19:56:46.522Z,10.40
2022-09-18T19:59:14.166Z,10.40
2022-09-18T20:01:40.841Z,10.30
2022-09-18T20:04:07.627Z,10.30
2022-09-18T20:06:34.746Z,10.30
2022-09-18T20:09:01.982Z,10.20
2022-09-18T20:11:28.544Z,10.20
2022-09-18T20:13:55.236Z,10.20
2022-09-18T20:16:22.588Z,10.10
2022-09-18T20:18:49.938Z,10.10
2022-09-18T20:21:18.937Z,10.10
2022-09-18T20:23:48.229Z,10.20
2022-09-18T20:26:17.269Z,10.10
2022-09-18T20:28:44.798Z,10.10
2022-09-18T20:31:13.335Z,10.10
2022-09-18T20:33:40.516Z,10.10
2022-09-18T20:36:09.084Z,10.10
2022-09-18T20:38:38.352Z,10.10
2022-09-18T20:41:08.124Z,10.10
2022-09-18T20:43:35.654Z,10.10
